sensor_id;sensor_type;location;lat;lon;timestamp;P1;durP1;ratioP1;P2;durP2;ratioP2
7440;SDS011;29616;51.950;8.572;2023-11-21T00:00:23;273.48;;;132.73;;
7440;SDS011;29616;51.950;8.572;2023-11-21T00:02:55;273.15;;;132.90;;
7440;SDS011;29616;51.950;8.572;2023-11-21T00:05:25;269.33;;;127.95;;
7440;SDS011;29616;51.950;8.572;2023-11-21T00:07:53;272.23;;;128.50;;
7440;SDS011;29616;51.950;8.572;2023-11-21T00:10:24;276.95;;;136.13;;
7440;SDS011;29616;51.950;8.572;2023-11-21T00:12:54;257.60;;;122.43;;
7440;SDS011;29616;51.950;8.572;2023-11-21T00:15:23;258.33;;;126.15;;
7440;SDS011;29616;51.950;8.572;2023-11-21T00:17:56;268.95;;;126.95;;
7440;SDS011;29616;51.950;8.572;2023-11-21T00:20:26;250.07;;;121.50;;
7440;SDS011;29616;51.950;8.572;2023-11-21T00:22:57;250.35;;;125.63;;
7440;SDS011;29616;51.950;8.572;2023-11-21T00:25:26;244.50;;;119.68;;
7440;SDS011;29616;51.950;8.572;2023-11-21T00:27:54;245.30;;;124.28;;
7440;SDS011;29616;51.950;8.572;2023-11-21T00:30:23;246.30;;;121.78;;
7440;SDS011;29616;51.950;8.572;2023-11-21T00:32:54;252.48;;;122.57;;
7440;SDS011;29616;51.950;8.572;2023-11-21T00:35:24;246.38;;;123.03;;
7440;SDS011;29616;51.950;8.572;2023-11-21T00:37:54;250.63;;;126.18;;
7440;SDS011;29616;51.950;8.572;2023-11-21T00:40:24;241.02;;;122.70;;
7440;SDS011;29616;51.950;8.572;2023-11-21T00:42:54;259.25;;;126.25;;
7440;SDS011;29616;51.950;8.572;2023-11-21T00:45:23;266.67;;;129.45;;
7440;SDS011;29616;51.950;8.572;2023-11-21T00:47:54;253.25;;;125.45;;
7440;SDS011;29616;51.950;8.572;2023-11-21T00:50:27;247.55;;;121.20;;
7440;SDS011;29616;51.950;8.572;2023-11-21T00:52:57;246.30;;;118.53;;
7440;SDS011;29616;51.950;8.572;2023-11-21T00:55:27;263.83;;;125.07;;
7440;SDS011;29616;51.950;8.572;2023-11-21T00:57:56;264.77;;;126.95;;
7440;SDS011;29616;51.950;8.572;2023-11-21T01:00:27;266.42;;;129.60;;
7440;SDS011;29616;51.950;8.572;2023-11-21T01:02:56;240.95;;;121.60;;
7440;SDS011;29616;51.950;8.572;2023-11-21T01:05:29;260.45;;;122.95;;
7440;SDS011;29616;51.950;8.572;2023-11-21T01:07:58;259.02;;;123.22;;
7440;SDS011;29616;51.950;8.572;2023-11-21T01:10:28;259.95;;;129.88;;
7440;SDS011;29616;51.950;8.572;2023-11-21T01:12:59;269.98;;;130.90;;
7440;SDS011;29616;51.950;8.572;2023-11-21T01:15:28;270.70;;;128.88;;
7440;SDS011;29616;51.950;8.572;2023-11-21T01:17:58;271.13;;;127.00;;
7440;SDS011;29616;51.950;8.572;2023-11-21T01:20:30;262.75;;;123.57;;
7440;SDS011;29616;51.950;8.572;2023-11-21T01:23:00;265.48;;;124.28;;
7440;SDS011;29616;51.950;8.572;2023-11-21T01:25:31;272.85;;;132.88;;
7440;SDS011;29616;51.950;8.572;2023-11-21T01:28:02;281.48;;;134.38;;
7440;SDS011;29616;51.950;8.572;2023-11-21T01:30:31;280.15;;;135.00;;
7440;SDS011;29616;51.950;8.572;2023-11-21T01:33:00;260.75;;;124.10;;
7440;SDS011;29616;51.950;8.572;2023-11-21T01:35:31;281.67;;;129.30;;
7440;SDS011;29616;51.950;8.572;2023-11-21T01:38:01;281.75;;;131.25;;
7440;SDS011;29616;51.950;8.572;2023-11-21T01:40:31;279.25;;;133.23;;
7440;SDS011;29616;51.950;8.572;2023-11-21T01:43:01;271.48;;;124.50;;
7440;SDS011;29616;51.950;8.572;2023-11-21T01:45:30;272.08;;;128.43;;
7440;SDS011;29616;51.950;8.572;2023-11-21T01:48:01;260.27;;;126.72;;
7440;SDS011;29616;51.950;8.572;2023-11-21T01:50:36;275.85;;;127.25;;
7440;SDS011;29616;51.950;8.572;2023-11-21T01:53:04;261.45;;;125.72;;
7440;SDS011;29616;51.950;8.572;2023-11-21T01:55:35;262.15;;;130.52;;
7440;SDS011;29616;51.950;8.572;2023-11-21T01:58:07;273.90;;;127.55;;
7440;SDS011;29616;51.950;8.572;2023-11-21T02:00:40;295.20;;;132.25;;
7440;SDS011;29616;51.950;8.572;2023-11-21T02:03:11;283.90;;;132.65;;
7440;SDS011;29616;51.950;8.572;2023-11-21T02:05:42;281.27;;;130.10;;
7440;SDS011;29616;51.950;8.572;2023-11-21T02:08:10;284.02;;;130.55;;
7440;SDS011;29616;51.950;8.572;2023-11-21T02:10:39;260.23;;;125.65;;
7440;SDS011;29616;51.950;8.572;2023-11-21T02:13:07;252.63;;;118.25;;
7440;SDS011;29616;51.950;8.572;2023-11-21T02:15:38;251.82;;;115.65;;
7440;SDS011;29616;51.950;8.572;2023-11-21T02:18:07;236.10;;;118.43;;
7440;SDS011;29616;51.950;8.572;2023-11-21T02:20:38;253.68;;;118.95;;
7440;SDS011;29616;51.950;8.572;2023-11-21T02:23:10;246.73;;;117.35;;
7440;SDS011;29616;51.950;8.572;2023-11-21T02:25:40;268.27;;;119.88;;
7440;SDS011;29616;51.950;8.572;2023-11-21T02:28:09;291.77;;;126.10;;
7440;SDS011;29616;51.950;8.572;2023-11-21T02:30:40;261.20;;;124.18;;
7440;SDS011;29616;51.950;8.572;2023-11-21T02:33:11;267.33;;;118.85;;
7440;SDS011;29616;51.950;8.572;2023-11-21T02:35:40;290.50;;;132.15;;
7440;SDS011;29616;51.950;8.572;2023-11-21T02:38:13;269.40;;;124.07;;
7440;SDS011;29616;51.950;8.572;2023-11-21T02:40:42;257.63;;;119.82;;
7440;SDS011;29616;51.950;8.572;2023-11-21T02:43:12;253.88;;;113.40;;
7440;SDS011;29616;51.950;8.572;2023-11-21T02:45:40;251.15;;;113.90;;
7440;SDS011;29616;51.950;8.572;2023-11-21T02:48:11;240.82;;;112.05;;
7440;SDS011;29616;51.950;8.572;2023-11-21T02:53:11;252.00;;;120.03;;
7440;SDS011;29616;51.950;8.572;2023-11-21T02:55:42;247.75;;;113.80;;
7440;SDS011;29616;51.950;8.572;2023-11-21T02:58:12;245.10;;;116.32;;
7440;SDS011;29616;51.950;8.572;2023-11-21T03:00:42;239.73;;;112.03;;
7440;SDS011;29616;51.950;8.572;2023-11-21T03:03:12;235.00;;;113.97;;
7440;SDS011;29616;51.950;8.572;2023-11-21T03:05:43;236.98;;;115.32;;
7440;SDS011;29616;51.950;8.572;2023-11-21T03:08:13;233.90;;;111.70;;
7440;SDS011;29616;51.950;8.572;2023-11-21T03:10:43;266.92;;;118.10;;
7440;SDS011;29616;51.950;8.572;2023-11-21T03:13:11;246.05;;;114.78;;
7440;SDS011;29616;51.950;8.572;2023-11-21T03:15:41;262.60;;;121.72;;
7440;SDS011;29616;51.950;8.572;2023-11-21T03:20:41;268.77;;;125.32;;
7440;SDS011;29616;51.950;8.572;2023-11-21T03:23:12;259.92;;;124.22;;
7440;SDS011;29616;51.950;8.572;2023-11-21T03:25:45;260.27;;;119.35;;
7440;SDS011;29616;51.950;8.572;2023-11-21T03:28:14;269.33;;;116.40;;
7440;SDS011;29616;51.950;8.572;2023-11-21T03:30:44;265.02;;;116.55;;
7440;SDS011;29616;51.950;8.572;2023-11-21T03:33:13;261.40;;;122.18;;
7440;SDS011;29616;51.950;8.572;2023-11-21T03:35:43;252.55;;;118.40;;
7440;SDS011;29616;51.950;8.572;2023-11-21T03:38:12;255.90;;;121.20;;
7440;SDS011;29616;51.950;8.572;2023-11-21T03:40:42;274.48;;;123.68;;
7440;SDS011;29616;51.950;8.572;2023-11-21T03:43:12;273.45;;;119.55;;
7440;SDS011;29616;51.950;8.572;2023-11-21T03:45:44;266.42;;;124.80;;
7440;SDS011;29616;51.950;8.572;2023-11-21T03:48:16;273.05;;;119.63;;
7440;SDS011;29616;51.950;8.572;2023-11-21T03:50:45;254.63;;;114.22;;
7440;SDS011;29616;51.950;8.572;2023-11-21T03:53:14;263.20;;;123.45;;
7440;SDS011;29616;51.950;8.572;2023-11-21T03:55:43;257.63;;;114.70;;
7440;SDS011;29616;51.950;8.572;2023-11-21T03:58:14;258.52;;;120.25;;
7440;SDS011;29616;51.950;8.572;2023-11-21T04:00:44;257.40;;;122.72;;
7440;SDS011;29616;51.950;8.572;2023-11-21T04:03:17;243.95;;;111.47;;
7440;SDS011;29616;51.950;8.572;2023-11-21T04:05:47;255.05;;;118.60;;
7440;SDS011;29616;51.950;8.572;2023-11-21T04:08:16;240.35;;;111.88;;
7440;SDS011;29616;51.950;8.572;2023-11-21T04:10:46;255.77;;;113.13;;
7440;SDS011;29616;51.950;8.572;2023-11-21T04:13:17;256.70;;;121.82;;
7440;SDS011;29616;51.950;8.572;2023-11-21T04:15:46;281.52;;;117.88;;
7440;SDS011;29616;51.950;8.572;2023-11-21T04:18:14;255.45;;;119.05;;
7440;SDS011;29616;51.950;8.572;2023-11-21T04:20:43;260.15;;;125.25;;
7440;SDS011;29616;51.950;8.572;2023-11-21T04:23:11;255.80;;;118.45;;
7440;SDS011;29616;51.950;8.572;2023-11-21T04:25:41;257.42;;;123.93;;
7440;SDS011;29616;51.950;8.572;2023-11-21T04:28:12;269.35;;;127.57;;
7440;SDS011;29616;51.950;8.572;2023-11-21T04:30:45;270.88;;;121.43;;
7440;SDS011;29616;51.950;8.572;2023-11-21T04:33:14;245.07;;;121.60;;
7440;SDS011;29616;51.950;8.572;2023-11-21T04:35:43;261.17;;;126.68;;
7440;SDS011;29616;51.950;8.572;2023-11-21T04:38:12;247.23;;;117.55;;
7440;SDS011;29616;51.950;8.572;2023-11-21T04:40:42;249.60;;;123.43;;
7440;SDS011;29616;51.950;8.572;2023-11-21T04:43:11;273.52;;;133.35;;
7440;SDS011;29616;51.950;8.572;2023-11-21T04:48:09;260.70;;;126.53;;
7440;SDS011;29616;51.950;8.572;2023-11-21T04:50:38;293.02;;;139.68;;
7440;SDS011;29616;51.950;8.572;2023-11-21T04:53:07;274.48;;;133.32;;
7440;SDS011;29616;51.950;8.572;2023-11-21T04:55:37;269.45;;;127.13;;
7440;SDS011;29616;51.950;8.572;2023-11-21T04:58:07;272.42;;;127.47;;
7440;SDS011;29616;51.950;8.572;2023-11-21T05:00:36;269.67;;;133.65;;
7440;SDS011;29616;51.950;8.572;2023-11-21T05:03:06;260.55;;;130.30;;
7440;SDS011;29616;51.950;8.572;2023-11-21T05:05:40;270.02;;;127.43;;
7440;SDS011;29616;51.950;8.572;2023-11-21T05:08:11;279.25;;;136.13;;
7440;SDS011;29616;51.950;8.572;2023-11-21T05:10:40;291.17;;;138.13;;
7440;SDS011;29616;51.950;8.572;2023-11-21T05:13:09;280.10;;;135.60;;
7440;SDS011;29616;51.950;8.572;2023-11-21T05:15:38;323.52;;;146.85;;
7440;SDS011;29616;51.950;8.572;2023-11-21T05:18:10;312.60;;;149.95;;
7440;SDS011;29616;51.950;8.572;2023-11-21T05:20:41;302.63;;;143.35;;
7440;SDS011;29616;51.950;8.572;2023-11-21T05:23:11;328.33;;;149.27;;
7440;SDS011;29616;51.950;8.572;2023-11-21T05:25:41;303.90;;;138.15;;
7440;SDS011;29616;51.950;8.572;2023-11-21T05:28:12;306.50;;;139.65;;
7440;SDS011;29616;51.950;8.572;2023-11-21T05:30:42;319.75;;;147.90;;
7440;SDS011;29616;51.950;8.572;2023-11-21T05:33:14;320.42;;;149.20;;
7440;SDS011;29616;51.950;8.572;2023-11-21T05:35:44;344.75;;;154.00;;
7440;SDS011;29616;51.950;8.572;2023-11-21T05:38:14;352.67;;;158.00;;
7440;SDS011;29616;51.950;8.572;2023-11-21T05:40:43;321.80;;;144.85;;
7440;SDS011;29616;51.950;8.572;2023-11-21T05:43:13;335.33;;;146.52;;
7440;SDS011;29616;51.950;8.572;2023-11-21T05:45:44;321.23;;;145.13;;
7440;SDS011;29616;51.950;8.572;2023-11-21T05:48:13;332.23;;;152.90;;
7440;SDS011;29616;51.950;8.572;2023-11-21T05:50:45;339.60;;;145.55;;
7440;SDS011;29616;51.950;8.572;2023-11-21T05:53:15;336.23;;;148.60;;
7440;SDS011;29616;51.950;8.572;2023-11-21T05:55:45;338.23;;;148.88;;
7440;SDS011;29616;51.950;8.572;2023-11-21T05:58:14;333.63;;;155.63;;
7440;SDS011;29616;51.950;8.572;2023-11-21T06:00:46;315.42;;;144.52;;
7440;SDS011;29616;51.950;8.572;2023-11-21T06:05:47;333.17;;;156.70;;
7440;SDS011;29616;51.950;8.572;2023-11-21T06:08:17;329.40;;;147.18;;
7440;SDS011;29616;51.950;8.572;2023-11-21T06:10:47;331.80;;;157.25;;
7440;SDS011;29616;51.950;8.572;2023-11-21T06:15:48;346.80;;;158.90;;
7440;SDS011;29616;51.950;8.572;2023-11-21T06:18:18;354.85;;;160.50;;
7440;SDS011;29616;51.950;8.572;2023-11-21T06:20:49;369.77;;;158.55;;
7440;SDS011;29616;51.950;8.572;2023-11-21T06:23:19;354.70;;;161.07;;
7440;SDS011;29616;51.950;8.572;2023-11-21T06:25:48;345.98;;;157.43;;
7440;SDS011;29616;51.950;8.572;2023-11-21T06:28:19;337.02;;;151.82;;
7440;SDS011;29616;51.950;8.572;2023-11-21T06:30:48;340.83;;;154.93;;
7440;SDS011;29616;51.950;8.572;2023-11-21T06:33:17;350.70;;;159.05;;
7440;SDS011;29616;51.950;8.572;2023-11-21T06:35:45;364.55;;;162.55;;
7440;SDS011;29616;51.950;8.572;2023-11-21T06:38:16;361.50;;;163.15;;
7440;SDS011;29616;51.950;8.572;2023-11-21T06:40:47;362.52;;;166.73;;
7440;SDS011;29616;51.950;8.572;2023-11-21T06:43:16;367.60;;;162.23;;
7440;SDS011;29616;51.950;8.572;2023-11-21T06:45:45;373.70;;;170.40;;
7440;SDS011;29616;51.950;8.572;2023-11-21T06:48:15;358.05;;;165.80;;
7440;SDS011;29616;51.950;8.572;2023-11-21T06:50:44;407.17;;;181.52;;
7440;SDS011;29616;51.950;8.572;2023-11-21T06:53:14;375.38;;;166.35;;
7440;SDS011;29616;51.950;8.572;2023-11-21T06:55:47;364.77;;;157.02;;
7440;SDS011;29616;51.950;8.572;2023-11-21T06:58:16;351.55;;;155.25;;
7440;SDS011;29616;51.950;8.572;2023-11-21T07:00:48;417.58;;;188.90;;
7440;SDS011;29616;51.950;8.572;2023-11-21T07:03:20;396.85;;;179.82;;
7440;SDS011;29616;51.950;8.572;2023-11-21T07:05:51;386.10;;;170.48;;
7440;SDS011;29616;51.950;8.572;2023-11-21T07:08:22;411.17;;;179.85;;
7440;SDS011;29616;51.950;8.572;2023-11-21T07:10:52;405.15;;;178.57;;
7440;SDS011;29616;51.950;8.572;2023-11-21T07:13:20;432.70;;;196.32;;
7440;SDS011;29616;51.950;8.572;2023-11-21T07:18:17;357.73;;;166.02;;
7440;SDS011;29616;51.950;8.572;2023-11-21T07:20:47;364.60;;;165.65;;
7440;SDS011;29616;51.950;8.572;2023-11-21T07:23:16;383.48;;;167.18;;
7440;SDS011;29616;51.950;8.572;2023-11-21T07:25:47;357.80;;;155.52;;
7440;SDS011;29616;51.950;8.572;2023-11-21T07:28:17;361.65;;;160.20;;
7440;SDS011;29616;51.950;8.572;2023-11-21T07:30:46;354.85;;;157.52;;
7440;SDS011;29616;51.950;8.572;2023-11-21T07:33:14;372.20;;;168.93;;
7440;SDS011;29616;51.950;8.572;2023-11-21T07:35:45;370.75;;;160.10;;
7440;SDS011;29616;51.950;8.572;2023-11-21T07:38:17;321.27;;;143.45;;
7440;SDS011;29616;51.950;8.572;2023-11-21T07:40:48;308.08;;;144.20;;
7440;SDS011;29616;51.950;8.572;2023-11-21T07:43:17;322.42;;;146.90;;
7440;SDS011;29616;51.950;8.572;2023-11-21T07:45:47;373.55;;;156.88;;
7440;SDS011;29616;51.950;8.572;2023-11-21T07:48:16;331.27;;;144.10;;
7440;SDS011;29616;51.950;8.572;2023-11-21T07:50:44;324.25;;;148.05;;
7440;SDS011;29616;51.950;8.572;2023-11-21T07:53:14;339.67;;;150.15;;
7440;SDS011;29616;51.950;8.572;2023-11-21T07:55:43;334.92;;;153.00;;
7440;SDS011;29616;51.950;8.572;2023-11-21T07:58:16;324.40;;;148.32;;
7440;SDS011;29616;51.950;8.572;2023-11-21T08:00:45;319.25;;;146.10;;
7440;SDS011;29616;51.950;8.572;2023-11-21T08:03:16;323.77;;;147.90;;
7440;SDS011;29616;51.950;8.572;2023-11-21T08:05:47;327.65;;;147.27;;
7440;SDS011;29616;51.950;8.572;2023-11-21T08:08:17;325.95;;;143.05;;
7440;SDS011;29616;51.950;8.572;2023-11-21T08:10:48;345.42;;;153.40;;
7440;SDS011;29616;51.950;8.572;2023-11-21T08:13:25;324.92;;;149.70;;
7440;SDS011;29616;51.950;8.572;2023-11-21T08:15:57;320.35;;;144.95;;
7440;SDS011;29616;51.950;8.572;2023-11-21T08:18:29;332.25;;;143.80;;
7440;SDS011;29616;51.950;8.572;2023-11-21T08:20:59;306.80;;;133.70;;
7440;SDS011;29616;51.950;8.572;2023-11-21T08:23:29;311.70;;;143.13;;
7440;SDS011;29616;51.950;8.572;2023-11-21T08:26:00;331.55;;;144.60;;
7440;SDS011;29616;51.950;8.572;2023-11-21T08:28:34;319.38;;;139.02;;
7440;SDS011;29616;51.950;8.572;2023-11-21T08:31:05;325.75;;;148.95;;
7440;SDS011;29616;51.950;8.572;2023-11-21T08:33:35;345.52;;;146.95;;
7440;SDS011;29616;51.950;8.572;2023-11-21T08:36:06;334.25;;;148.00;;
7440;SDS011;29616;51.950;8.572;2023-11-21T08:38:40;329.30;;;140.82;;
7440;SDS011;29616;51.950;8.572;2023-11-21T08:41:10;314.38;;;141.02;;
7440;SDS011;29616;51.950;8.572;2023-11-21T08:43:42;315.33;;;143.55;;
7440;SDS011;29616;51.950;8.572;2023-11-21T08:46:11;345.20;;;146.95;;
7440;SDS011;29616;51.950;8.572;2023-11-21T08:48:42;326.35;;;149.75;;
7440;SDS011;29616;51.950;8.572;2023-11-21T08:51:12;354.38;;;152.98;;
7440;SDS011;29616;51.950;8.572;2023-11-21T08:53:43;342.80;;;150.65;;
7440;SDS011;29616;51.950;8.572;2023-11-21T08:56:13;341.40;;;147.13;;
7440;SDS011;29616;51.950;8.572;2023-11-21T08:58:45;350.20;;;147.13;;
7440;SDS011;29616;51.950;8.572;2023-11-21T09:01:15;348.30;;;144.20;;
7440;SDS011;29616;51.950;8.572;2023-11-21T09:03:45;339.73;;;147.05;;
7440;SDS011;29616;51.950;8.572;2023-11-21T09:06:15;325.58;;;147.07;;
7440;SDS011;29616;51.950;8.572;2023-11-21T09:08:46;359.38;;;146.32;;
7440;SDS011;29616;51.950;8.572;2023-11-21T09:11:18;340.80;;;143.32;;
7440;SDS011;29616;51.950;8.572;2023-11-21T09:13:48;320.42;;;146.05;;
7440;SDS011;29616;51.950;8.572;2023-11-21T09:16:17;335.05;;;146.52;;
7440;SDS011;29616;51.950;8.572;2023-11-21T09:18:48;340.65;;;144.25;;
7440;SDS011;29616;51.950;8.572;2023-11-21T09:21:18;303.38;;;134.00;;
7440;SDS011;29616;51.950;8.572;2023-11-21T09:23:47;325.13;;;138.73;;
7440;SDS011;29616;51.950;8.572;2023-11-21T09:26:17;325.48;;;142.90;;
7440;SDS011;29616;51.950;8.572;2023-11-21T09:28:48;318.17;;;136.80;;
7440;SDS011;29616;51.950;8.572;2023-11-21T09:31:18;309.52;;;135.63;;
7440;SDS011;29616;51.950;8.572;2023-11-21T09:33:50;315.77;;;135.10;;
7440;SDS011;29616;51.950;8.572;2023-11-21T09:36:21;311.33;;;134.82;;
7440;SDS011;29616;51.950;8.572;2023-11-21T09:38:54;318.35;;;136.85;;
7440;SDS011;29616;51.950;8.572;2023-11-21T09:41:27;296.50;;;134.50;;
7440;SDS011;29616;51.950;8.572;2023-11-21T09:44:10;298.33;;;136.32;;
7440;SDS011;29616;51.950;8.572;2023-11-21T09:46:46;282.52;;;130.73;;
7440;SDS011;29616;51.950;8.572;2023-11-21T09:49:20;307.02;;;139.35;;
7440;SDS011;29616;51.950;8.572;2023-11-21T09:51:54;318.25;;;142.23;;
7440;SDS011;29616;51.950;8.572;2023-11-21T09:54:26;307.33;;;134.13;;
7440;SDS011;29616;51.950;8.572;2023-11-21T09:56:57;315.85;;;141.75;;
7440;SDS011;29616;51.950;8.572;2023-11-21T09:59:30;349.45;;;147.82;;
7440;SDS011;29616;51.950;8.572;2023-11-21T10:02:00;357.70;;;156.15;;
7440;SDS011;29616;51.950;8.572;2023-11-21T10:04:31;306.90;;;137.50;;
7440;SDS011;29616;51.950;8.572;2023-11-21T10:07:02;274.02;;;128.98;;
7440;SDS011;29616;51.950;8.572;2023-11-21T10:09:37;269.00;;;121.82;;
7440;SDS011;29616;51.950;8.572;2023-11-21T10:12:07;257.98;;;118.90;;
7440;SDS011;29616;51.950;8.572;2023-11-21T10:14:42;257.67;;;120.40;;
7440;SDS011;29616;51.950;8.572;2023-11-21T10:17:17;253.43;;;116.20;;
7440;SDS011;29616;51.950;8.572;2023-11-21T10:19:48;257.80;;;117.90;;
7440;SDS011;29616;51.950;8.572;2023-11-21T10:22:18;235.63;;;113.90;;
7440;SDS011;29616;51.950;8.572;2023-11-21T10:28:35;233.40;;;110.57;;
7440;SDS011;29616;51.950;8.572;2023-11-21T10:31:56;221.65;;;108.93;;
7440;SDS011;29616;51.950;8.572;2023-11-21T10:35:03;214.13;;;109.60;;
7440;SDS011;29616;51.950;8.572;2023-11-21T10:38:33;212.88;;;107.13;;
7440;SDS011;29616;51.950;8.572;2023-11-21T10:42:00;202.20;;;103.95;;
7440;SDS011;29616;51.950;8.572;2023-11-21T10:44:48;207.43;;;102.18;;
7440;SDS011;29616;51.950;8.572;2023-11-21T10:51:08;215.07;;;108.90;;
7440;SDS011;29616;51.950;8.572;2023-11-21T10:54:07;207.45;;;103.88;;
7440;SDS011;29616;51.950;8.572;2023-11-21T10:57:04;189.77;;;96.47;;
7440;SDS011;29616;51.950;8.572;2023-11-21T11:00:07;190.73;;;95.75;;
7440;SDS011;29616;51.950;8.572;2023-11-21T11:03:13;254.25;;;118.65;;
7440;SDS011;29616;51.950;8.572;2023-11-21T11:06:14;164.45;;;90.85;;
7440;SDS011;29616;51.950;8.572;2023-11-21T11:09:07;153.88;;;81.80;;
7440;SDS011;29616;51.950;8.572;2023-11-21T11:11:55;154.70;;;81.97;;
7440;SDS011;29616;51.950;8.572;2023-11-21T11:14:44;302.65;;;138.73;;
7440;SDS011;29616;51.950;8.572;2023-11-21T11:17:15;191.20;;;97.50;;
7440;SDS011;29616;51.950;8.572;2023-11-21T11:19:49;208.18;;;108.60;;
7440;SDS011;29616;51.950;8.572;2023-11-21T11:22:28;207.52;;;107.05;;
7440;SDS011;29616;51.950;8.572;2023-11-21T11:25:12;206.38;;;103.15;;
7440;SDS011;29616;51.950;8.572;2023-11-21T11:28:02;202.30;;;107.32;;
7440;SDS011;29616;51.950;8.572;2023-11-21T11:30:39;194.82;;;103.18;;
7440;SDS011;29616;51.950;8.572;2023-11-21T11:33:23;223.48;;;114.53;;
7440;SDS011;29616;51.950;8.572;2023-11-21T11:36:09;250.95;;;120.03;;
7440;SDS011;29616;51.950;8.572;2023-11-21T11:38:45;202.02;;;105.68;;
7440;SDS011;29616;51.950;8.572;2023-11-21T11:41:23;216.27;;;106.20;;
7440;SDS011;29616;51.950;8.572;2023-11-21T11:43:55;206.48;;;103.97;;
7440;SDS011;29616;51.950;8.572;2023-11-21T11:46:39;267.48;;;125.05;;
7440;SDS011;29616;51.950;8.572;2023-11-21T11:49:11;176.55;;;93.07;;
7440;SDS011;29616;51.950;8.572;2023-11-21T11:55:02;152.40;;;82.07;;
7440;SDS011;29616;51.950;8.572;2023-11-21T11:57:34;151.68;;;84.25;;
7440;SDS011;29616;51.950;8.572;2023-11-21T12:00:10;167.07;;;88.53;;
7440;SDS011;29616;51.950;8.572;2023-11-21T12:05:18;151.27;;;84.18;;
7440;SDS011;29616;51.950;8.572;2023-11-21T12:07:51;144.93;;;84.32;;
7440;SDS011;29616;51.950;8.572;2023-11-21T12:10:21;124.28;;;73.68;;
7440;SDS011;29616;51.950;8.572;2023-11-21T12:12:55;123.88;;;71.57;;
7440;SDS011;29616;51.950;8.572;2023-11-21T12:15:26;125.97;;;72.63;;
7440;SDS011;29616;51.950;8.572;2023-11-21T12:17:57;120.97;;;71.32;;
7440;SDS011;29616;51.950;8.572;2023-11-21T12:20:26;135.73;;;80.00;;
7440;SDS011;29616;51.950;8.572;2023-11-21T12:22:59;139.10;;;81.97;;
7440;SDS011;29616;51.950;8.572;2023-11-21T12:25:30;133.35;;;80.22;;
7440;SDS011;29616;51.950;8.572;2023-11-21T12:28:00;133.07;;;78.97;;
7440;SDS011;29616;51.950;8.572;2023-11-21T12:30:30;139.75;;;82.20;;
7440;SDS011;29616;51.950;8.572;2023-11-21T12:33:04;145.77;;;82.07;;
7440;SDS011;29616;51.950;8.572;2023-11-21T12:35:36;141.63;;;82.72;;
7440;SDS011;29616;51.950;8.572;2023-11-21T12:38:08;138.80;;;81.95;;
7440;SDS011;29616;51.950;8.572;2023-11-21T12:40:37;131.30;;;79.20;;
7440;SDS011;29616;51.950;8.572;2023-11-21T12:43:09;127.00;;;77.93;;
7440;SDS011;29616;51.950;8.572;2023-11-21T12:45:40;137.45;;;80.43;;
7440;SDS011;29616;51.950;8.572;2023-11-21T12:48:10;134.45;;;76.97;;
7440;SDS011;29616;51.950;8.572;2023-11-21T12:50:40;122.35;;;76.38;;
7440;SDS011;29616;51.950;8.572;2023-11-21T12:53:12;130.20;;;75.35;;
7440;SDS011;29616;51.950;8.572;2023-11-21T12:55:45;133.10;;;79.35;;
7440;SDS011;29616;51.950;8.572;2023-11-21T12:58:19;125.88;;;73.82;;
7440;SDS011;29616;51.950;8.572;2023-11-21T13:00:49;128.82;;;74.05;;
7440;SDS011;29616;51.950;8.572;2023-11-21T13:03:21;129.18;;;78.47;;
7440;SDS011;29616;51.950;8.572;2023-11-21T13:05:55;135.23;;;77.53;;
7440;SDS011;29616;51.950;8.572;2023-11-21T13:08:26;131.75;;;75.45;;
7440;SDS011;29616;51.950;8.572;2023-11-21T13:10:57;136.18;;;77.13;;
7440;SDS011;29616;51.950;8.572;2023-11-21T13:13:28;144.65;;;85.95;;
7440;SDS011;29616;51.950;8.572;2023-11-21T13:16:00;149.75;;;87.70;;
7440;SDS011;29616;51.950;8.572;2023-11-21T13:18:34;149.00;;;86.65;;
7440;SDS011;29616;51.950;8.572;2023-11-21T13:21:04;152.98;;;88.43;;
7440;SDS011;29616;51.950;8.572;2023-11-21T13:23:43;121.80;;;74.75;;
7440;SDS011;29616;51.950;8.572;2023-11-21T13:26:15;122.28;;;69.93;;
7440;SDS011;29616;51.950;8.572;2023-11-21T13:28:48;116.93;;;71.43;;
7440;SDS011;29616;51.950;8.572;2023-11-21T13:31:17;118.75;;;69.63;;
7440;SDS011;29616;51.950;8.572;2023-11-21T13:33:53;120.28;;;70.47;;
7440;SDS011;29616;51.950;8.572;2023-11-21T13:36:27;122.80;;;71.38;;
7440;SDS011;29616;51.950;8.572;2023-11-21T13:39:03;125.72;;;72.18;;
7440;SDS011;29616;51.950;8.572;2023-11-21T13:41:35;138.48;;;83.38;;
7440;SDS011;29616;51.950;8.572;2023-11-21T13:44:06;142.57;;;83.95;;
7440;SDS011;29616;51.950;8.572;2023-11-21T13:46:44;145.35;;;84.47;;
7440;SDS011;29616;51.950;8.572;2023-11-21T13:49:14;146.98;;;82.78;;
7440;SDS011;29616;51.950;8.572;2023-11-21T13:51:43;145.07;;;85.03;;
7440;SDS011;29616;51.950;8.572;2023-11-21T13:54:17;139.35;;;77.93;;
7440;SDS011;29616;51.950;8.572;2023-11-21T13:56:48;139.77;;;77.32;;
7440;SDS011;29616;51.950;8.572;2023-11-21T13:59:17;146.63;;;85.15;;
7440;SDS011;29616;51.950;8.572;2023-11-21T14:01:50;162.18;;;87.15;;
7440;SDS011;29616;51.950;8.572;2023-11-21T14:04:26;173.75;;;96.10;;
7440;SDS011;29616;51.950;8.572;2023-11-21T14:07:21;179.27;;;97.90;;
7440;SDS011;29616;51.950;8.572;2023-11-21T14:10:02;173.68;;;96.32;;
7440;SDS011;29616;51.950;8.572;2023-11-21T14:12:32;176.82;;;97.25;;
7440;SDS011;29616;51.950;8.572;2023-11-21T14:15:05;180.32;;;100.65;;
7440;SDS011;29616;51.950;8.572;2023-11-21T14:17:38;179.30;;;97.72;;
7440;SDS011;29616;51.950;8.572;2023-11-21T14:20:08;170.73;;;92.10;;
7440;SDS011;29616;51.950;8.572;2023-11-21T14:22:44;166.52;;;89.22;;
7440;SDS011;29616;51.950;8.572;2023-11-21T14:25:17;169.95;;;91.80;;
7440;SDS011;29616;51.950;8.572;2023-11-21T14:27:46;177.85;;;93.90;;
7440;SDS011;29616;51.950;8.572;2023-11-21T14:30:17;185.70;;;96.72;;
7440;SDS011;29616;51.950;8.572;2023-11-21T14:32:49;179.70;;;94.32;;
7440;SDS011;29616;51.950;8.572;2023-11-21T14:35:17;175.68;;;93.63;;
7440;SDS011;29616;51.950;8.572;2023-11-21T14:37:47;187.45;;;97.10;;
7440;SDS011;29616;51.950;8.572;2023-11-21T14:40:18;191.27;;;104.45;;
7440;SDS011;29616;51.950;8.572;2023-11-21T14:45:26;207.88;;;108.20;;
7440;SDS011;29616;51.950;8.572;2023-11-21T14:47:56;216.15;;;114.65;;
7440;SDS011;29616;51.950;8.572;2023-11-21T14:50:33;216.70;;;114.72;;
7440;SDS011;29616;51.950;8.572;2023-11-21T14:53:28;212.43;;;108.47;;
7440;SDS011;29616;51.950;8.572;2023-11-21T14:56:13;204.50;;;103.75;;
7440;SDS011;29616;51.950;8.572;2023-11-21T14:58:52;201.80;;;105.38;;
7440;SDS011;29616;51.950;8.572;2023-11-21T15:01:23;199.68;;;103.45;;
7440;SDS011;29616;51.950;8.572;2023-11-21T15:04:10;199.25;;;106.38;;
7440;SDS011;29616;51.950;8.572;2023-11-21T15:06:56;185.95;;;97.88;;
7440;SDS011;29616;51.950;8.572;2023-11-21T15:09:26;187.02;;;101.90;;
7440;SDS011;29616;51.950;8.572;2023-11-21T15:12:11;207.82;;;110.43;;